createdAt,value
2019-02-09T00:00:25.824Z,0.4
2019-02-09T00:01:35.339Z,1.2
2019-02-09T00:02:44.853Z,0.8
2019-02-09T00:03:54.402Z,0.7
2019-02-09T00:05:03.914Z,0.5
2019-02-09T00:06:13.422Z,0.4
2019-02-09T00:07:22.990Z,0.3
2019-02-09T00:08:32.536Z,0.4
2019-02-09T00:09:42.074Z,0.4
2019-02-09T00:10:51.601Z,0.6
2019-02-09T00:12:01.171Z,0.7
2019-02-09T00:13:10.711Z,0.5
2019-02-09T00:14:20.222Z,0.4
2019-02-09T00:15:29.733Z,1
2019-02-09T00:16:39.355Z,0.5
2019-02-09T00:17:48.795Z,0.6
2019-02-09T00:18:58.324Z,0.7
2019-02-09T00:20:07.866Z,0.9
2019-02-09T00:21:17.403Z,1
2019-02-09T00:22:26.900Z,0.9
2019-02-09T00:23:36.415Z,0.7
2019-02-09T00:24:45.950Z,0.6
2019-02-09T00:25:55.456Z,0.7
2019-02-09T00:27:05.008Z,0.7
2019-02-09T00:28:14.535Z,1.1
2019-02-09T00:29:24.052Z,0.8
2019-02-09T00:30:33.573Z,0.6
2019-02-09T00:31:43.078Z,0.8
2019-02-09T00:32:52.609Z,0.6
2019-02-09T00:34:02.151Z,0.5
2019-02-09T00:35:11.685Z,0.4
2019-02-09T00:36:21.269Z,0.6
2019-02-09T00:37:30.792Z,0.5
2019-02-09T00:38:40.317Z,0.5
2019-02-09T00:39:49.853Z,0.5
2019-02-09T00:40:59.382Z,0.4
2019-02-09T00:42:08.892Z,0.4
2019-02-09T00:43:18.415Z,0.4
2019-02-09T00:44:27.953Z,0.7
2019-02-09T00:45:37.487Z,0.5
2019-02-09T00:46:46.996Z,0.6
2019-02-09T00:47:56.529Z,0.4
2019-02-09T00:49:06.083Z,0.5
2019-02-09T00:50:15.608Z,0.5
2019-02-09T00:51:25.182Z,0.3
2019-02-09T00:52:34.732Z,0.5
2019-02-09T00:53:44.242Z,0.5
2019-02-09T00:54:53.760Z,0.8
2019-02-09T00:56:03.288Z,0.7
2019-02-09T00:57:12.821Z,0.6
2019-02-09T00:58:22.332Z,0.5
2019-02-09T00:59:31.894Z,0.3
2019-02-09T01:00:41.439Z,0.3
2019-02-09T01:01:50.952Z,0.3
2019-02-09T01:03:00.491Z,0.5
2019-02-09T01:04:10.026Z,0.6
2019-02-09T01:05:19.540Z,0.5
2019-02-09T01:06:29.059Z,0.5
2019-02-09T01:07:38.575Z,0.4
2019-02-09T01:08:48.103Z,0.3
2019-02-09T01:09:57.751Z,0.3
2019-02-09T01:11:07.258Z,0.4
2019-02-09T01:12:16.773Z,0.9
2019-02-09T01:13:26.326Z,0.6
2019-02-09T01:14:35.859Z,0.4
2019-02-09T01:15:45.401Z,0.4
2019-02-09T01:16:54.920Z,0.6
2019-02-09T01:18:04.439Z,0.4
2019-02-09T01:19:13.969Z,0.3
2019-02-09T01:20:23.486Z,0.2
2019-02-09T01:21:33.027Z,0.4
2019-02-09T01:22:42.591Z,0.5
2019-02-09T01:23:52.143Z,0.4
2019-02-09T01:25:01.679Z,0.5
2019-02-09T01:26:11.186Z,0.3
2019-02-09T01:27:20.708Z,0.4
2019-02-09T01:28:30.219Z,0.6
2019-02-09T01:29:39.761Z,0.5
2019-02-09T01:30:49.301Z,0.5
2019-02-09T01:31:58.829Z,0.8
2019-02-09T01:33:08.422Z,0.8
2019-02-09T01:34:18.012Z,0.7
2019-02-09T01:35:27.581Z,0.6
2019-02-09T01:36:37.134Z,0.5
2019-02-09T01:37:46.642Z,0.5
2019-02-09T01:38:56.218Z,0.4
2019-02-09T01:40:05.770Z,0.4
2019-02-09T01:41:15.301Z,0.6
2019-02-09T01:42:24.836Z,0.7
2019-02-09T01:43:34.348Z,0.6
2019-02-09T01:44:43.890Z,0.8
2019-02-09T01:45:53.435Z,0.6
2019-02-09T01:47:02.950Z,0.7
2019-02-09T01:48:12.457Z,0.8
2019-02-09T01:49:22.007Z,0.7
2019-02-09T01:50:31.545Z,0.8
2019-02-09T01:51:41.105Z,0.4
2019-02-09T01:52:50.638Z,0.7
2019-02-09T01:54:00.126Z,0.7
2019-02-09T01:55:09.661Z,0.4
2019-02-09T01:56:19.183Z,0.4
2019-02-09T01:57:28.697Z,0.6
2019-02-09T01:58:38.222Z,0.5
2019-02-09T01:59:47.727Z,0.4
2019-02-09T02:00:57.338Z,0.6
2019-02-09T02:02:06.844Z,0.5
2019-02-09T02:03:16.360Z,0.6
2019-02-09T02:04:25.896Z,0.3
2019-02-09T02:05:35.449Z,0.6
2019-02-09T02:06:44.956Z,0.7
2019-02-09T02:07:54.471Z,0.6
2019-02-09T02:09:04.024Z,0.5
2019-02-09T02:10:13.589Z,0.4
2019-02-09T02:11:23.120Z,0.5
2019-02-09T02:12:32.644Z,0.4
2019-02-09T02:13:42.192Z,0.5
2019-02-09T02:14:51.693Z,0.5
2019-02-09T02:16:01.215Z,0.4
2019-02-09T02:17:10.747Z,0.5
2019-02-09T02:18:21.263Z,0.7
2019-02-09T02:19:30.784Z,0.4
2019-02-09T02:20:40.319Z,0.4
2019-02-09T02:21:49.822Z,0.4
2019-02-09T02:22:59.339Z,0.4
2019-02-09T02:24:08.850Z,0.6
2019-02-09T02:25:18.409Z,0.5
2019-02-09T02:26:27.976Z,0.5
2019-02-09T02:27:37.480Z,0.4
2019-02-09T02:28:46.991Z,0.5
2019-02-09T02:29:56.512Z,0.4
2019-02-09T02:31:06.043Z,0.6
2019-02-09T02:32:15.588Z,0.7
2019-02-09T02:33:25.135Z,0.4
2019-02-09T02:34:34.669Z,0.6
2019-02-09T02:35:44.226Z,0.4
2019-02-09T02:36:53.740Z,0.6
2019-02-09T02:38:03.265Z,0.2
2019-02-09T02:39:12.790Z,0.4
2019-02-09T02:40:22.386Z,0.4
2019-02-09T02:41:31.934Z,0.5
2019-02-09T02:42:41.437Z,0.7
2019-02-09T02:43:50.952Z,0.3
2019-02-09T02:45:00.471Z,0.4
2019-02-09T02:46:09.995Z,0.4
2019-02-09T02:47:19.523Z,0.5
2019-02-09T02:48:29.040Z,0.3
2019-02-09T02:49:38.582Z,0.5
2019-02-09T02:50:48.169Z,0.6
2019-02-09T02:51:57.711Z,0.4
2019-02-09T02:53:07.227Z,0.4
2019-02-09T02:54:16.761Z,0.7
2019-02-09T02:55:26.283Z,0.4
2019-02-09T02:56:35.857Z,0.2
2019-02-09T02:57:45.373Z,0.3
2019-02-09T02:58:54.883Z,0.4
2019-02-09T03:00:04.392Z,0.4
2019-02-09T03:01:13.944Z,0.3
2019-02-09T03:02:23.480Z,0.3
2019-02-09T03:03:32.975Z,0.3
2019-02-09T03:04:42.511Z,0.3
2019-02-09T03:05:52.049Z,0.4
2019-02-09T03:07:01.569Z,0.4
2019-02-09T03:08:11.103Z,0.2
2019-02-09T03:09:20.633Z,0.3
2019-02-09T03:10:30.169Z,0.3
2019-02-09T03:11:39.700Z,0.2
2019-02-09T03:12:49.264Z,0.3
2019-02-09T03:13:58.773Z,0.3
2019-02-09T03:15:08.296Z,0.3
2019-02-09T03:16:17.840Z,0.2
2019-02-09T03:17:27.348Z,0.3
2019-02-09T03:18:36.854Z,0.3
2019-02-09T03:19:46.381Z,0.3
2019-02-09T03:20:55.905Z,0.2
2019-02-09T03:22:05.424Z,0.3
2019-02-09T03:23:14.953Z,0.4
2019-02-09T03:24:24.487Z,0.3
2019-02-09T03:25:34.005Z,0.3
2019-02-09T03:26:43.667Z,0.3
2019-02-09T03:27:53.189Z,0.2
2019-02-09T03:29:02.691Z,0.2
2019-02-09T03:30:12.214Z,0.1
2019-02-09T03:31:21.775Z,0.2
2019-02-09T03:32:31.324Z,0.1
2019-02-09T03:33:40.835Z,0.1
2019-02-09T03:34:50.354Z,0.2
2019-02-09T03:35:59.869Z,0.3
2019-02-09T03:37:09.375Z,0.2
2019-02-09T03:38:18.879Z,0.2
2019-02-09T03:39:28.408Z,0.4
2019-02-09T03:40:37.913Z,0.2
2019-02-09T03:41:47.450Z,0.3
2019-02-09T03:42:56.973Z,0.2
2019-02-09T03:44:06.483Z,0.5
2019-02-09T03:45:15.992Z,0.2
2019-02-09T03:46:25.538Z,0.4
2019-02-09T03:47:35.049Z,0.2
2019-02-09T03:48:44.565Z,0.4
2019-02-09T03:49:54.070Z,0.2
2019-02-09T03:51:03.593Z,0.3
2019-02-09T03:52:13.126Z,0.2
2019-02-09T03:53:22.780Z,0.1
2019-02-09T03:54:32.211Z,0.2
2019-02-09T03:55:41.737Z,0.2
2019-02-09T03:56:51.263Z,0.3
2019-02-09T03:58:00.799Z,0.3
2019-02-09T03:59:10.315Z,0.2
2019-02-09T04:00:19.825Z,0.1
2019-02-09T04:01:29.376Z,0.2
2019-02-09T04:02:38.918Z,0.2
2019-02-09T04:03:48.452Z,0.1
2019-02-09T04:04:57.980Z,0.2
2019-02-09T04:06:07.512Z,0.3
2019-02-09T04:07:17.019Z,0.3
2019-02-09T04:08:26.531Z,0.3
2019-02-09T04:09:36.050Z,0.3
2019-02-09T04:10:45.592Z,0.1
2019-02-09T04:11:55.134Z,0.2
2019-02-09T04:13:04.660Z,0.2
2019-02-09T04:14:14.175Z,0.1
2019-02-09T04:15:23.689Z,0.3
2019-02-09T04:16:33.211Z,0.4
2019-02-09T04:17:42.767Z,0.2
2019-02-09T04:18:52.308Z,0.2
2019-02-09T04:20:01.821Z,0.2
2019-02-09T04:21:11.348Z,0.1
2019-02-09T04:22:20.890Z,0.2
2019-02-09T04:23:30.432Z,0.3
2019-02-09T04:24:39.962Z,0.3
2019-02-09T04:25:49.465Z,0.1
2019-02-09T04:26:58.980Z,0.3
2019-02-09T04:28:08.490Z,0.2
2019-02-09T04:29:18.011Z,0.1
2019-02-09T04:30:27.549Z,0.2
2019-02-09T04:31:37.102Z,0.4
2019-02-09T04:32:46.628Z,0.6
2019-02-09T04:33:56.143Z,1.2
2019-02-09T04:35:05.642Z,0.3
2019-02-09T04:36:15.154Z,0.2
2019-02-09T04:37:24.678Z,0.2
2019-02-09T04:38:34.210Z,0.2
2019-02-09T04:39:43.763Z,0.3
2019-02-09T04:40:53.278Z,0.2
2019-02-09T04:42:02.815Z,0.3
2019-02-09T04:43:12.326Z,0.3
2019-02-09T04:44:21.856Z,0.2
2019-02-09T04:45:31.389Z,0.3
2019-02-09T04:46:40.914Z,0.3
2019-02-09T04:47:50.445Z,0.3
2019-02-09T04:48:59.983Z,0.5
2019-02-09T04:50:09.502Z,0.2
2019-02-09T04:51:19.012Z,0.2
2019-02-09T04:52:28.530Z,0.1
2019-02-09T04:53:38.054Z,0.2
2019-02-09T04:54:47.587Z,0.1
2019-02-09T04:55:57.106Z,0.2
2019-02-09T04:57:06.624Z,0.3
2019-02-09T04:58:16.155Z,0.1
2019-02-09T04:59:25.694Z,0.5
2019-02-09T05:00:35.216Z,0.3
2019-02-09T05:01:45.734Z,0.3
2019-02-09T05:02:55.341Z,0.2
2019-02-09T05:04:04.847Z,0.2
2019-02-09T05:05:14.386Z,0.5
2019-02-09T05:06:23.920Z,0.2
2019-02-09T05:07:33.459Z,0.3
2019-02-09T05:08:42.968Z,0.1
2019-02-09T05:09:52.497Z,0.2
2019-02-09T05:11:02.000Z,0.2
2019-02-09T05:12:11.526Z,0.1
2019-02-09T05:13:21.058Z,0.2
2019-02-09T05:14:30.573Z,0.2
2019-02-09T05:15:40.091Z,0.2
2019-02-09T05:16:49.616Z,0.1
2019-02-09T05:17:59.149Z,0.3
2019-02-09T05:19:08.672Z,0.2
2019-02-09T05:20:18.400Z,0.1
2019-02-09T05:21:27.948Z,0.2
2019-02-09T05:22:37.511Z,0.1
2019-02-09T05:23:47.053Z,0.1
2019-02-09T05:24:56.630Z,0.1
2019-02-09T05:26:06.148Z,0.1
2019-02-09T05:27:15.668Z,0.2
2019-02-09T05:28:25.242Z,0.2
2019-02-09T05:29:34.766Z,0.1
2019-02-09T05:30:44.282Z,0.2
2019-02-09T05:31:53.826Z,0.1
2019-02-09T05:33:03.369Z,0.2
2019-02-09T05:34:12.885Z,0.2
2019-02-09T05:35:22.399Z,0.1
2019-02-09T05:36:31.909Z,0.1
2019-02-09T05:37:41.467Z,0.1
2019-02-09T05:38:51.008Z,0.2
2019-02-09T05:40:00.589Z,0.2
2019-02-09T05:41:10.120Z,0.2
2019-02-09T05:42:19.601Z,0.2
2019-02-09T05:43:29.197Z,0.2
2019-02-09T05:44:38.712Z,0.1
2019-02-09T05:45:48.218Z,0.1
2019-02-09T05:46:57.731Z,0.1
2019-02-09T05:48:07.257Z,0.3
2019-02-09T05:49:16.807Z,0.1
2019-02-09T05:50:26.319Z,0.1
2019-02-09T05:51:35.838Z,0.1
2019-02-09T05:52:45.419Z,0.1
2019-02-09T05:53:54.930Z,0.2
2019-02-09T05:55:04.459Z,0.1
2019-02-09T05:56:13.950Z,0.1
2019-02-09T05:57:23.512Z,0.2
2019-02-09T05:58:33.044Z,0.2
2019-02-09T05:59:42.580Z,0.2
2019-02-09T06:00:52.160Z,0.2
2019-02-09T06:02:01.697Z,0.1
2019-02-09T06:03:11.241Z,0.2
2019-02-09T06:04:20.778Z,0.2
2019-02-09T06:05:30.327Z,0.1
2019-02-09T06:06:39.847Z,0.2
2019-02-09T06:07:49.380Z,0.1
2019-02-09T06:08:58.890Z,0.3
2019-02-09T06:10:08.416Z,0.2
2019-02-09T06:11:19.219Z,0.2
2019-02-09T06:12:28.481Z,0.3
2019-02-09T06:13:38.007Z,0.1
2019-02-09T06:14:47.505Z,0.1
2019-02-09T06:15:57.020Z,0.2
2019-02-09T06:17:06.536Z,0.3
2019-02-09T06:18:16.097Z,0.1
2019-02-09T06:19:25.620Z,0.5
2019-02-09T06:20:35.186Z,0.2
2019-02-09T06:21:44.698Z,0.1
2019-02-09T06:22:54.224Z,0.1
2019-02-09T06:24:03.740Z,0.1
2019-02-09T06:25:13.259Z,0.1
2019-02-09T06:26:22.788Z,0.2
2019-02-09T06:27:32.316Z,0.2
2019-02-09T06:28:41.837Z,0.1
2019-02-09T06:29:51.351Z,0.1
2019-02-09T06:31:01.858Z,0.1
2019-02-09T06:32:11.387Z,0.2
2019-02-09T06:33:20.961Z,0.1
2019-02-09T06:34:30.474Z,0.1
2019-02-09T06:35:40.001Z,0.1
2019-02-09T06:36:49.517Z,0.4
2019-02-09T06:37:59.029Z,0.2
2019-02-09T06:39:08.558Z,0.2
2019-02-09T06:40:18.099Z,0.2
2019-02-09T06:41:27.616Z,0.3
2019-02-09T06:42:37.156Z,0.3
2019-02-09T06:43:46.688Z,0.2
2019-02-09T06:44:56.220Z,0.2
2019-02-09T06:46:05.769Z,0.2
2019-02-09T06:47:15.321Z,0.2
2019-02-09T06:48:24.862Z,0.2
2019-02-09T06:49:34.389Z,0.1
2019-02-09T06:50:43.939Z,0.1
2019-02-09T06:51:53.449Z,0.2
2019-02-09T06:53:03.000Z,0.2
2019-02-09T06:54:12.541Z,0.3
2019-02-09T06:55:22.076Z,0.2
2019-02-09T06:56:31.577Z,0.1
2019-02-09T06:57:41.107Z,0.2
2019-02-09T06:58:50.635Z,0.1
2019-02-09T07:00:00.182Z,0.1
2019-02-09T07:01:09.676Z,0.2
2019-02-09T07:02:19.251Z,0.3
2019-02-09T07:03:28.800Z,0.1
2019-02-09T07:04:38.366Z,0.1
2019-02-09T07:05:47.895Z,0.1
2019-02-09T07:06:57.409Z,0.1
2019-02-09T07:08:06.934Z,0.3
2019-02-09T07:09:16.600Z,0.2
2019-02-09T07:10:26.309Z,0.3
2019-02-09T07:11:36.140Z,0.2
2019-02-09T07:12:45.801Z,0.1
2019-02-09T07:13:55.332Z,0.1
2019-02-09T07:15:04.849Z,0.2
2019-02-09T07:16:14.390Z,0.1
2019-02-09T07:17:23.916Z,0.2
2019-02-09T07:18:33.510Z,0.3
2019-02-09T07:19:43.050Z,0.2
2019-02-09T07:20:52.619Z,0.1
2019-02-09T07:22:02.127Z,0.3
2019-02-09T07:23:11.636Z,0.1
2019-02-09T07:24:21.182Z,0.2
2019-02-09T07:25:30.695Z,0.2
2019-02-09T07:26:40.218Z,0.1
2019-02-09T07:27:49.738Z,0.2
2019-02-09T07:28:59.306Z,0.2
2019-02-09T07:30:08.855Z,0.1
2019-02-09T07:31:18.392Z,0.1
2019-02-09T07:32:27.921Z,0.2
2019-02-09T07:33:37.457Z,0.1
2019-02-09T07:34:46.983Z,0.1
2019-02-09T07:35:56.497Z,0.2
2019-02-09T07:37:06.033Z,0.1
2019-02-09T07:38:15.542Z,0.1
2019-02-09T07:39:25.115Z,0.1
2019-02-09T07:40:34.619Z,0.3
2019-02-09T07:41:44.141Z,0.1
2019-02-09T07:42:53.645Z,0.2
2019-02-09T07:44:03.178Z,0.2
2019-02-09T07:45:12.692Z,0.1
2019-02-09T07:46:22.400Z,0.1
2019-02-09T07:47:31.917Z,0.1
2019-02-09T07:48:41.445Z,0.1
2019-02-09T07:49:50.954Z,0.1
2019-02-09T07:51:00.461Z,0.2
2019-02-09T07:52:10.009Z,0.1
2019-02-09T07:53:19.547Z,0.1
2019-02-09T07:54:29.091Z,0
2019-02-09T07:55:38.625Z,0.3
2019-02-09T07:56:48.142Z,0.1
2019-02-09T07:57:57.664Z,0.2
2019-02-09T07:59:07.230Z,0.1
2019-02-09T08:00:16.758Z,0.1
2019-02-09T08:01:26.308Z,0.1
2019-02-09T08:02:35.835Z,0.1
2019-02-09T08:03:45.381Z,0.2
2019-02-09T08:04:54.922Z,0.1
2019-02-09T08:06:04.429Z,0.2
2019-02-09T08:07:13.938Z,0.2
2019-02-09T08:08:23.442Z,0.2
2019-02-09T08:09:32.985Z,0.2
2019-02-09T08:10:42.519Z,0.1
2019-02-09T08:11:52.101Z,0.1
2019-02-09T08:13:01.618Z,0.2
2019-02-09T08:14:11.159Z,0.1
2019-02-09T08:15:20.671Z,0.1
2019-02-09T08:16:30.216Z,0.2
2019-02-09T08:17:39.756Z,0.3
2019-02-09T08:18:49.359Z,0.1
2019-02-09T08:19:58.886Z,0.2
2019-02-09T08:21:08.419Z,0.1
2019-02-09T08:22:17.948Z,0.1
2019-02-09T08:23:27.456Z,0.3
2019-02-09T08:24:37.000Z,0.3
2019-02-09T08:25:46.517Z,0.3
2019-02-09T08:26:56.023Z,0.1
2019-02-09T08:28:05.546Z,0.2
2019-02-09T08:29:15.159Z,0.1
2019-02-09T08:30:24.709Z,0.3
2019-02-09T08:31:34.275Z,0.1
2019-02-09T08:32:43.787Z,0.1
2019-02-09T08:33:53.309Z,0.1
2019-02-09T08:35:02.931Z,0.2
2019-02-09T08:36:12.569Z,0.1
2019-02-09T08:37:22.081Z,0.1
2019-02-09T08:38:32.370Z,0.2
2019-02-09T08:39:41.921Z,0.2
2019-02-09T08:40:51.475Z,0.3
2019-02-09T08:42:02.005Z,0.1
2019-02-09T08:43:11.530Z,0.2
2019-02-09T08:44:21.085Z,0.1
2019-02-09T08:45:30.596Z,0.1
2019-02-09T08:46:40.126Z,0.1
2019-02-09T08:47:49.668Z,0.1
2019-02-09T08:48:59.227Z,0.3
2019-02-09T08:50:08.786Z,0.1
2019-02-09T08:51:18.306Z,0.1
2019-02-09T08:52:27.821Z,0.1
2019-02-09T08:53:37.396Z,0.1
2019-02-09T08:54:46.942Z,0.2
2019-02-09T08:55:56.470Z,0.1
2019-02-09T08:57:06.073Z,0.2
2019-02-09T08:58:15.605Z,0.2
2019-02-09T08:59:25.210Z,0.1
2019-02-09T09:00:34.737Z,0.1
2019-02-09T09:01:44.267Z,0.2
2019-02-09T09:02:53.821Z,0.2
2019-02-09T09:04:03.379Z,0.1
2019-02-09T09:05:12.906Z,0.1
2019-02-09T09:06:22.445Z,0
2019-02-09T09:07:31.960Z,0.1
2019-02-09T09:08:41.530Z,0.1
2019-02-09T09:09:51.100Z,0.3
2019-02-09T09:11:01.427Z,0.1
2019-02-09T09:12:10.143Z,0.2
2019-02-09T09:13:19.689Z,0.1
2019-02-09T09:14:29.246Z,0.1
2019-02-09T09:15:38.781Z,0.1
2019-02-09T09:16:48.330Z,0.1
2019-02-09T09:17:57.895Z,0.1
2019-02-09T09:19:07.423Z,0.2
2019-02-09T09:20:17.016Z,0.1
2019-02-09T09:21:26.531Z,0.2
2019-02-09T09:22:36.037Z,0.1
2019-02-09T09:23:45.566Z,0.2
2019-02-09T09:24:55.113Z,0.1
2019-02-09T09:26:04.611Z,0.2
2019-02-09T09:27:14.136Z,0.2
2019-02-09T09:28:23.659Z,0.1
2019-02-09T09:29:33.320Z,0.2
2019-02-09T09:30:42.835Z,0.2
2019-02-09T09:31:52.356Z,0.1
2019-02-09T09:33:01.890Z,0.1
2019-02-09T09:34:11.415Z,0.1
2019-02-09T09:35:20.998Z,0.1
2019-02-09T09:36:30.507Z,0.2
2019-02-09T09:37:40.052Z,0.3
2019-02-09T09:38:49.594Z,0.1
2019-02-09T09:39:59.141Z,0.2
2019-02-09T09:41:08.669Z,0.2
2019-02-09T09:42:18.210Z,0.4
2019-02-09T09:43:27.807Z,0.2
2019-02-09T09:44:37.419Z,0.1
2019-02-09T09:45:46.950Z,0.1
2019-02-09T09:46:56.506Z,0.1
2019-02-09T09:48:06.052Z,0.1
2019-02-09T09:49:15.568Z,0
2019-02-09T09:50:25.110Z,0.2
2019-02-09T09:51:34.623Z,0.2
2019-02-09T09:52:44.157Z,0.1
2019-02-09T09:53:53.692Z,0.1
2019-02-09T09:55:03.276Z,0.2
2019-02-09T09:56:14.296Z,0.2
2019-02-09T09:57:23.285Z,0.1
2019-02-09T09:58:32.817Z,0.1
2019-02-09T09:59:42.390Z,0.2
2019-02-09T10:00:51.918Z,0.1
2019-02-09T10:02:01.438Z,0.1
2019-02-09T10:03:10.948Z,0.3
2019-02-09T10:04:20.491Z,0.1
2019-02-09T10:05:30.063Z,0.1
2019-02-09T10:06:39.614Z,0.1
2019-02-09T10:07:49.158Z,0.3
2019-02-09T10:08:58.665Z,0.1
2019-02-09T10:10:08.205Z,0.1
2019-02-09T10:11:17.731Z,0.1
2019-02-09T10:12:27.240Z,0.2
2019-02-09T10:13:36.757Z,0
2019-02-09T10:14:46.301Z,0.1
2019-02-09T10:15:55.874Z,0.2
2019-02-09T10:17:05.439Z,0.1
2019-02-09T10:18:14.942Z,0.1
2019-02-09T10:19:24.459Z,0.2
2019-02-09T10:20:34.015Z,0.1
2019-02-09T10:21:43.645Z,0.1
2019-02-09T10:22:53.170Z,0.1
2019-02-09T10:24:02.733Z,0.2
2019-02-09T10:25:12.273Z,0.1
2019-02-09T10:26:21.783Z,0.1
2019-02-09T10:27:31.336Z,0.2
2019-02-09T10:28:40.846Z,0.2
2019-02-09T10:29:50.362Z,0.1
2019-02-09T10:30:59.919Z,0.1
2019-02-09T10:32:09.430Z,0.2
2019-02-09T10:33:19.019Z,0.2
2019-02-09T10:34:28.570Z,0.1
2019-02-09T10:35:38.108Z,0.1
2019-02-09T10:36:47.759Z,0.2
2019-02-09T10:37:57.293Z,0.1
2019-02-09T10:39:06.829Z,0.1
2019-02-09T10:40:16.359Z,0.1
2019-02-09T10:41:25.860Z,0.2
2019-02-09T10:42:35.392Z,0.1
2019-02-09T10:43:44.893Z,0.1
2019-02-09T10:44:54.409Z,0.1
2019-02-09T10:46:03.973Z,0.1
2019-02-09T10:47:13.493Z,0.1
2019-02-09T10:48:23.026Z,0.1
2019-02-09T10:49:32.536Z,0.1
2019-02-09T10:50:42.139Z,0.2
2019-02-09T10:51:51.648Z,0.2
2019-02-09T10:53:01.206Z,0.1
2019-02-09T10:54:10.735Z,0.1
2019-02-09T10:55:20.317Z,0.1
2019-02-09T10:56:29.841Z,0.1
2019-02-09T10:57:39.346Z,0.2
2019-02-09T10:58:48.857Z,0.1
2019-02-09T10:59:58.380Z,0
2019-02-09T11:01:07.932Z,0.1
2019-02-09T11:02:17.453Z,0.2
2019-02-09T11:03:26.975Z,0.1
2019-02-09T11:04:36.502Z,0.2
2019-02-09T11:05:46.058Z,0.2
2019-02-09T11:06:55.593Z,0
2019-02-09T11:08:05.119Z,0.2
2019-02-09T11:09:14.651Z,0.1
2019-02-09T11:10:24.206Z,0.2
2019-02-09T11:11:33.741Z,0
2019-02-09T11:12:43.254Z,0.1
2019-02-09T11:13:52.763Z,0.2
2019-02-09T11:15:02.334Z,0.1
2019-02-09T11:16:11.885Z,0.1
2019-02-09T11:17:21.414Z,0.1
2019-02-09T11:18:30.934Z,0.1
2019-02-09T11:19:40.488Z,0.2
2019-02-09T11:20:50.053Z,0.1
2019-02-09T11:21:59.575Z,0.1
2019-02-09T11:23:09.113Z,0.2
2019-02-09T11:24:18.693Z,0.1
2019-02-09T11:25:28.278Z,0.1
2019-02-09T11:26:37.832Z,0.1
2019-02-09T11:27:47.365Z,0.3
2019-02-09T11:28:56.902Z,0.1
2019-02-09T11:30:06.425Z,0.2
2019-02-09T11:31:15.983Z,0.3
2019-02-09T11:32:25.512Z,0.1
2019-02-09T11:33:35.046Z,0.2
2019-02-09T11:34:44.561Z,0.1
2019-02-09T11:35:54.129Z,0.2
2019-02-09T11:37:03.673Z,0.3
2019-02-09T11:38:13.208Z,0.2
2019-02-09T11:39:22.742Z,0.1
2019-02-09T11:40:32.267Z,0.1
2019-02-09T11:41:41.827Z,0.2
2019-02-09T11:42:51.359Z,0.2
2019-02-09T11:44:00.871Z,0.1
2019-02-09T11:45:10.402Z,0
2019-02-09T11:46:19.979Z,0.1
2019-02-09T11:47:29.519Z,0.2
2019-02-09T11:48:39.042Z,0.3
2019-02-09T11:49:48.566Z,0.2
2019-02-09T11:50:58.148Z,0.2
2019-02-09T11:52:07.903Z,0.1
2019-02-09T11:53:17.207Z,0.2
2019-02-09T11:54:26.733Z,0.2
2019-02-09T11:55:36.275Z,0.2
2019-02-09T11:56:45.849Z,0.1
2019-02-09T11:57:55.388Z,0.2
2019-02-09T11:59:04.919Z,0.2
2019-02-09T12:00:14.445Z,0.1
2019-02-09T12:01:23.999Z,0.2
2019-02-09T12:02:33.540Z,0.2
2019-02-09T12:03:43.062Z,0.1
2019-02-09T12:04:52.589Z,0.2
2019-02-09T12:06:02.145Z,0.2
2019-02-09T12:07:11.676Z,0.2
2019-02-09T12:08:21.205Z,0.2
2019-02-09T12:09:30.703Z,0.1
2019-02-09T12:10:40.228Z,0.1
2019-02-09T12:11:49.784Z,0.2
2019-02-09T12:12:59.315Z,0.1
2019-02-09T12:14:08.834Z,0.2
2019-02-09T12:15:18.357Z,0.1
2019-02-09T12:16:27.923Z,0.1
2019-02-09T12:17:37.446Z,0.1
2019-02-09T12:18:46.972Z,0.2
2019-02-09T12:19:56.513Z,0.1
2019-02-09T12:21:06.070Z,0.2
2019-02-09T12:22:15.676Z,0.3
2019-02-09T12:23:25.243Z,0.1
2019-02-09T12:24:34.750Z,0.1
2019-02-09T12:25:44.289Z,0
2019-02-09T12:26:53.889Z,0.1
2019-02-09T12:28:03.394Z,0.3
2019-02-09T12:29:12.905Z,0.3
2019-02-09T12:30:23.397Z,0.1
2019-02-09T12:31:32.941Z,0.1
2019-02-09T12:32:42.470Z,0.1
2019-02-09T12:33:51.991Z,0.1
2019-02-09T12:35:01.535Z,0.2
2019-02-09T12:36:11.082Z,0.2
2019-02-09T12:37:20.595Z,0.3
2019-02-09T12:38:30.150Z,0.2
2019-02-09T12:39:39.692Z,0.3
2019-02-09T12:40:49.232Z,0.2
2019-02-09T12:41:58.792Z,0.1
2019-02-09T12:43:08.323Z,0.2
2019-02-09T12:44:17.847Z,0.2
2019-02-09T12:45:27.381Z,0.1
2019-02-09T12:46:36.939Z,0.2
2019-02-09T12:47:46.460Z,0.3
2019-02-09T12:48:56.015Z,0.1
2019-02-09T12:50:05.556Z,0.2
2019-02-09T12:51:15.126Z,0.2
2019-02-09T12:52:24.671Z,0.1
2019-02-09T12:53:34.218Z,0.2
2019-02-09T12:54:43.755Z,0.2
2019-02-09T12:55:53.272Z,0.1
2019-02-09T12:57:02.839Z,0.2
2019-02-09T12:58:12.342Z,0.1
2019-02-09T12:59:21.928Z,0.1
2019-02-09T13:00:31.449Z,0.2
2019-02-09T13:01:41.029Z,0.1
2019-02-09T13:02:50.545Z,0.2
2019-02-09T13:04:00.051Z,0.2
2019-02-09T13:05:10.406Z,0.2
2019-02-09T13:06:19.176Z,0.3
2019-02-09T13:07:28.714Z,0.2
2019-02-09T13:08:38.221Z,0.3
2019-02-09T13:09:47.759Z,0.2
2019-02-09T13:10:57.285Z,0.2
2019-02-09T13:12:06.899Z,0.2
2019-02-09T13:13:16.425Z,0.2
2019-02-09T13:14:25.963Z,0.2
2019-02-09T13:15:35.476Z,0.3
2019-02-09T13:16:45.043Z,0.2
2019-02-09T13:17:54.546Z,0.1
2019-02-09T13:19:04.058Z,0.2
2019-02-09T13:20:13.584Z,0.2
2019-02-09T13:21:23.175Z,0.2
2019-02-09T13:22:32.709Z,0.2
2019-02-09T13:23:42.240Z,0.2
2019-02-09T13:24:51.762Z,0.3
2019-02-09T13:26:01.283Z,0.2
2019-02-09T13:27:10.852Z,0.2
2019-02-09T13:28:20.382Z,0.3
2019-02-09T13:29:29.951Z,0.3
2019-02-09T13:30:39.459Z,0.2
2019-02-09T13:31:48.984Z,0.1
2019-02-09T13:32:58.526Z,0.2
2019-02-09T13:34:08.199Z,0.1
2019-02-09T13:35:17.729Z,0.3
2019-02-09T13:36:27.318Z,0.1
2019-02-09T13:37:36.833Z,0.2
2019-02-09T13:38:46.400Z,0.2
2019-02-09T13:39:55.930Z,0.2
2019-02-09T13:41:05.447Z,0.2
2019-02-09T13:42:14.977Z,0.2
2019-02-09T13:43:24.507Z,0.1
2019-02-09T13:44:34.087Z,0.2
2019-02-09T13:45:43.601Z,0.2
2019-02-09T13:46:53.160Z,0.1
2019-02-09T13:48:02.681Z,0.1
2019-02-09T13:49:12.248Z,0.2
2019-02-09T13:50:21.779Z,0.2
2019-02-09T13:51:31.296Z,0.2
2019-02-09T13:52:40.826Z,0.2
2019-02-09T13:53:50.419Z,0.2
2019-02-09T13:55:00.101Z,0.3
2019-02-09T13:56:09.448Z,0.2
2019-02-09T13:57:18.976Z,0.1
2019-02-09T13:58:28.486Z,0.1
2019-02-09T13:59:38.047Z,0.1
2019-02-09T14:00:47.575Z,0.1
2019-02-09T14:01:57.115Z,0.3
2019-02-09T14:03:06.661Z,0.3
2019-02-09T14:04:16.232Z,0.2
2019-02-09T14:05:25.771Z,0.4
2019-02-09T14:06:35.274Z,0.2
2019-02-09T14:07:44.817Z,0.2
2019-02-09T14:08:54.331Z,0.1
2019-02-09T14:10:03.901Z,0.3
2019-02-09T14:11:13.428Z,0.1
2019-02-09T14:12:22.967Z,0.2
2019-02-09T14:13:32.487Z,0.3
2019-02-09T14:14:42.050Z,0.2
2019-02-09T14:15:51.620Z,0.1
2019-02-09T14:17:01.133Z,0.2
2019-02-09T14:18:10.654Z,0.3
2019-02-09T14:19:20.215Z,0.3
2019-02-09T14:20:29.769Z,0.2
2019-02-09T14:21:39.381Z,0.2
2019-02-09T14:22:48.841Z,0.1
2019-02-09T14:23:58.369Z,0.2
2019-02-09T14:25:07.938Z,0.3
2019-02-09T14:26:17.449Z,0.2
2019-02-09T14:27:26.962Z,0.2
2019-02-09T14:28:36.502Z,0.2
2019-02-09T14:29:46.068Z,0.1
2019-02-09T14:30:55.595Z,0.1
2019-02-09T14:32:05.144Z,0.2
2019-02-09T14:33:14.693Z,0.4
2019-02-09T14:34:24.292Z,0.1
2019-02-09T14:35:33.844Z,0.1
2019-02-09T14:36:44.364Z,0.1
2019-02-09T14:37:53.881Z,0.2
2019-02-09T14:39:03.410Z,0.1
2019-02-09T14:40:13.045Z,0.2
2019-02-09T14:41:22.556Z,0.2
2019-02-09T14:42:32.086Z,0.2
2019-02-09T14:43:41.630Z,0.1
2019-02-09T14:44:51.184Z,0.1
2019-02-09T14:46:00.743Z,0.1
2019-02-09T14:47:10.294Z,0.3
2019-02-09T14:48:19.806Z,0.1
2019-02-09T14:49:29.361Z,0.1
2019-02-09T14:50:39.624Z,0.2
2019-02-09T14:51:49.158Z,0.2
2019-02-09T14:52:58.700Z,0.1
2019-02-09T14:54:08.225Z,0.2
2019-02-09T14:55:19.349Z,0.1
2019-02-09T14:56:28.318Z,0.1
2019-02-09T14:57:37.828Z,0.1
2019-02-09T14:58:47.346Z,0.2
2019-02-09T14:59:56.918Z,0.1
2019-02-09T15:01:06.470Z,0.2
2019-02-09T15:02:16.011Z,0.2
2019-02-09T15:03:28.192Z,0.1
2019-02-09T15:04:36.079Z,0.2
2019-02-09T15:05:45.606Z,0.1
2019-02-09T15:06:55.143Z,0.2
2019-02-09T15:08:04.668Z,0.1
2019-02-09T15:09:14.193Z,0.4
2019-02-09T15:10:23.742Z,0.5
2019-02-09T15:11:33.247Z,0.3
2019-02-09T15:12:42.771Z,0.1
2019-02-09T15:13:52.332Z,0.1
2019-02-09T15:15:01.901Z,0.2
2019-02-09T15:16:11.448Z,0.1
2019-02-09T15:17:21.003Z,0.2
2019-02-09T15:18:30.518Z,0.1
2019-02-09T15:19:40.069Z,0.2
2019-02-09T15:20:49.592Z,0.2
2019-02-09T15:21:59.126Z,0.1
2019-02-09T15:23:08.655Z,0.2
2019-02-09T15:24:18.200Z,0.2
2019-02-09T15:25:27.765Z,0.2
2019-02-09T15:26:37.291Z,0.3
2019-02-09T15:27:46.805Z,0.1
2019-02-09T15:28:56.328Z,0.3
2019-02-09T15:30:05.900Z,0.3
2019-02-09T15:31:15.415Z,0.1
2019-02-09T15:32:24.950Z,0.1
2019-02-09T15:33:34.463Z,0.3
2019-02-09T15:34:44.017Z,0.2
2019-02-09T15:35:53.534Z,0
2019-02-09T15:37:03.067Z,0.1
2019-02-09T15:38:12.601Z,0.2
2019-02-09T15:39:22.128Z,0.2
2019-02-09T15:40:31.714Z,0.2
2019-02-09T15:41:41.243Z,0.3
2019-02-09T15:42:50.764Z,0.2
2019-02-09T15:44:00.290Z,0.4
2019-02-09T15:45:09.852Z,0.2
2019-02-09T15:46:19.406Z,0.2
2019-02-09T15:47:28.943Z,0.4
2019-02-09T15:48:38.485Z,0.2
2019-02-09T15:49:48.032Z,0.2
2019-02-09T15:50:57.595Z,0.2
2019-02-09T15:52:07.111Z,0.3
2019-02-09T15:53:16.635Z,0.3
2019-02-09T15:54:26.173Z,0.1
2019-02-09T15:55:35.739Z,0.3
2019-02-09T15:56:45.262Z,0.2
2019-02-09T15:57:54.798Z,0.2